sensor_id;sensor_type;location;lat;lon;timestamp;P1;durP1;ratioP1;P2;durP2;ratioP2
73959;SDS011;62316;48.920;2.342;2023-12-07T00:01:09;36.25;;;34.50;;
73959;SDS011;62316;48.920;2.342;2023-12-07T00:03:34;39.75;;;36.00;;
73959;SDS011;62316;48.920;2.342;2023-12-07T00:05:59;39.00;;;35.75;;
73959;SDS011;62316;48.920;2.342;2023-12-07T00:08:25;43.50;;;37.75;;
73959;SDS011;62316;48.920;2.342;2023-12-07T00:10:50;38.00;;;33.75;;
73959;SDS011;62316;48.920;2.342;2023-12-07T00:13:15;50.00;;;37.00;;
73959;SDS011;62316;48.920;2.342;2023-12-07T00:15:41;41.75;;;36.75;;
73959;SDS011;62316;48.920;2.342;2023-12-07T00:18:07;45.75;;;36.75;;
73959;SDS011;62316;48.920;2.342;2023-12-07T00:20:32;37.00;;;30.00;;
73959;SDS011;62316;48.920;2.342;2023-12-07T00:22:58;45.75;;;38.50;;
73959;SDS011;62316;48.920;2.342;2023-12-07T00:25:23;38.50;;;25.00;;
73959;SDS011;62316;48.920;2.342;2023-12-07T00:27:48;41.50;;;36.25;;
73959;SDS011;62316;48.920;2.342;2023-12-07T00:30:14;51.25;;;38.00;;
73959;SDS011;62316;48.920;2.342;2023-12-07T00:32:40;36.00;;;31.50;;
73959;SDS011;62316;48.920;2.342;2023-12-07T00:35:08;42.00;;;35.00;;
73959;SDS011;62316;48.920;2.342;2023-12-07T00:37:36;34.00;;;28.75;;
73959;SDS011;62316;48.920;2.342;2023-12-07T00:40:01;40.25;;;35.75;;
73959;SDS011;62316;48.920;2.342;2023-12-07T00:42:28;45.50;;;39.50;;
73959;SDS011;62316;48.920;2.342;2023-12-07T00:44:54;39.75;;;30.75;;
73959;SDS011;62316;48.920;2.342;2023-12-07T00:47:20;41.75;;;32.75;;
73959;SDS011;62316;48.920;2.342;2023-12-07T00:49:45;38.00;;;32.00;;
73959;SDS011;62316;48.920;2.342;2023-12-07T00:52:11;41.50;;;34.50;;
73959;SDS011;62316;48.920;2.342;2023-12-07T00:54:36;40.25;;;34.00;;
73959;SDS011;62316;48.920;2.342;2023-12-07T00:57:02;35.00;;;32.25;;
73959;SDS011;62316;48.920;2.342;2023-12-07T00:59:27;39.75;;;33.75;;
73959;SDS011;62316;48.920;2.342;2023-12-07T01:01:58;29.50;;;26.00;;
73959;SDS011;62316;48.920;2.342;2023-12-07T01:04:24;38.00;;;28.75;;
73959;SDS011;62316;48.920;2.342;2023-12-07T01:06:49;36.25;;;32.25;;
73959;SDS011;62316;48.920;2.342;2023-12-07T01:09:15;34.25;;;29.00;;
73959;SDS011;62316;48.920;2.342;2023-12-07T01:11:40;41.00;;;32.25;;
73959;SDS011;62316;48.920;2.342;2023-12-07T01:14:06;30.75;;;29.50;;
73959;SDS011;62316;48.920;2.342;2023-12-07T01:16:31;38.75;;;33.50;;
73959;SDS011;62316;48.920;2.342;2023-12-07T01:18:56;45.00;;;33.75;;
73959;SDS011;62316;48.920;2.342;2023-12-07T01:21:23;34.00;;;31.25;;
73959;SDS011;62316;48.920;2.342;2023-12-07T01:23:48;45.50;;;35.50;;
73959;SDS011;62316;48.920;2.342;2023-12-07T01:26:13;40.25;;;28.25;;
73959;SDS011;62316;48.920;2.342;2023-12-07T01:28:39;34.25;;;32.75;;
73959;SDS011;62316;48.920;2.342;2023-12-07T01:31:04;37.75;;;32.75;;
73959;SDS011;62316;48.920;2.342;2023-12-07T01:33:29;46.00;;;36.75;;
73959;SDS011;62316;48.920;2.342;2023-12-07T01:35:55;39.25;;;35.00;;
73959;SDS011;62316;48.920;2.342;2023-12-07T01:38:20;39.00;;;31.00;;
73959;SDS011;62316;48.920;2.342;2023-12-07T01:40:45;35.25;;;33.75;;
73959;SDS011;62316;48.920;2.342;2023-12-07T01:43:11;42.25;;;36.75;;
73959;SDS011;62316;48.920;2.342;2023-12-07T01:45:36;31.75;;;27.50;;
73959;SDS011;62316;48.920;2.342;2023-12-07T01:48:02;52.00;;;39.50;;
73959;SDS011;62316;48.920;2.342;2023-12-07T01:50:27;46.75;;;37.75;;
73959;SDS011;62316;48.920;2.342;2023-12-07T01:52:54;42.75;;;37.50;;
73959;SDS011;62316;48.920;2.342;2023-12-07T01:55:22;55.50;;;38.75;;
73959;SDS011;62316;48.920;2.342;2023-12-07T01:57:48;36.25;;;31.00;;
73959;SDS011;62316;48.920;2.342;2023-12-07T02:00:14;40.50;;;31.00;;
73959;SDS011;62316;48.920;2.342;2023-12-07T02:02:41;38.25;;;33.00;;
73959;SDS011;62316;48.920;2.342;2023-12-07T02:05:06;37.75;;;34.50;;
73959;SDS011;62316;48.920;2.342;2023-12-07T02:07:32;42.25;;;37.25;;
73959;SDS011;62316;48.920;2.342;2023-12-07T02:09:59;37.75;;;33.75;;
73959;SDS011;62316;48.920;2.342;2023-12-07T02:12:24;45.25;;;38.00;;
73959;SDS011;62316;48.920;2.342;2023-12-07T02:14:50;41.00;;;36.00;;
73959;SDS011;62316;48.920;2.342;2023-12-07T02:17:37;44.25;;;36.00;;
73959;SDS011;62316;48.920;2.342;2023-12-07T02:20:10;46.25;;;37.25;;
73959;SDS011;62316;48.920;2.342;2023-12-07T02:25:36;36.50;;;32.75;;
73959;SDS011;62316;48.920;2.342;2023-12-07T02:28:17;38.75;;;32.50;;
73959;SDS011;62316;48.920;2.342;2023-12-07T02:30:43;36.50;;;29.75;;
73959;SDS011;62316;48.920;2.342;2023-12-07T02:33:08;29.00;;;25.00;;
73959;SDS011;62316;48.920;2.342;2023-12-07T02:35:35;31.25;;;29.50;;
73959;SDS011;62316;48.920;2.342;2023-12-07T02:38:01;32.25;;;25.00;;
73959;SDS011;62316;48.920;2.342;2023-12-07T02:40:28;38.25;;;30.25;;
73959;SDS011;62316;48.920;2.342;2023-12-07T02:42:54;37.75;;;28.75;;
73959;SDS011;62316;48.920;2.342;2023-12-07T02:45:19;34.00;;;24.25;;
73959;SDS011;62316;48.920;2.342;2023-12-07T02:47:45;21.00;;;16.50;;
73959;SDS011;62316;48.920;2.342;2023-12-07T02:50:11;28.50;;;24.00;;
73959;SDS011;62316;48.920;2.342;2023-12-07T02:52:37;31.50;;;29.00;;
73959;SDS011;62316;48.920;2.342;2023-12-07T02:55:02;28.75;;;27.25;;
73959;SDS011;62316;48.920;2.342;2023-12-07T02:57:28;33.00;;;24.25;;
73959;SDS011;62316;48.920;2.342;2023-12-07T02:59:54;20.00;;;16.00;;
73959;SDS011;62316;48.920;2.342;2023-12-07T03:02:20;30.00;;;25.50;;
73959;SDS011;62316;48.920;2.342;2023-12-07T03:04:45;31.00;;;27.00;;
73959;SDS011;62316;48.920;2.342;2023-12-07T03:07:11;31.75;;;27.50;;
73959;SDS011;62316;48.920;2.342;2023-12-07T03:09:36;29.50;;;29.50;;
73959;SDS011;62316;48.920;2.342;2023-12-07T03:12:01;35.50;;;25.00;;
73959;SDS011;62316;48.920;2.342;2023-12-07T03:14:27;36.25;;;28.75;;
73959;SDS011;62316;48.920;2.342;2023-12-07T03:16:52;30.75;;;28.50;;
73959;SDS011;62316;48.920;2.342;2023-12-07T03:19:18;42.25;;;33.25;;
73959;SDS011;62316;48.920;2.342;2023-12-07T03:21:43;32.50;;;29.25;;
73959;SDS011;62316;48.920;2.342;2023-12-07T03:24:09;31.75;;;28.25;;
73959;SDS011;62316;48.920;2.342;2023-12-07T03:26:35;26.50;;;24.00;;
73959;SDS011;62316;48.920;2.342;2023-12-07T03:29:00;27.00;;;20.75;;
73959;SDS011;62316;48.920;2.342;2023-12-07T03:31:26;28.75;;;24.75;;
73959;SDS011;62316;48.920;2.342;2023-12-07T03:33:52;35.75;;;26.25;;
73959;SDS011;62316;48.920;2.342;2023-12-07T03:36:18;32.25;;;29.25;;
73959;SDS011;62316;48.920;2.342;2023-12-07T03:38:43;33.50;;;29.00;;
73959;SDS011;62316;48.920;2.342;2023-12-07T03:41:09;33.00;;;28.50;;
73959;SDS011;62316;48.920;2.342;2023-12-07T03:43:34;35.00;;;29.25;;
73959;SDS011;62316;48.920;2.342;2023-12-07T03:45:59;31.00;;;26.00;;
73959;SDS011;62316;48.920;2.342;2023-12-07T03:48:29;31.75;;;27.00;;
73959;SDS011;62316;48.920;2.342;2023-12-07T03:50:54;16.25;;;11.25;;
73959;SDS011;62316;48.920;2.342;2023-12-07T03:53:20;35.00;;;31.25;;
73959;SDS011;62316;48.920;2.342;2023-12-07T03:55:45;31.75;;;25.00;;
73959;SDS011;62316;48.920;2.342;2023-12-07T03:58:10;29.50;;;27.25;;
73959;SDS011;62316;48.920;2.342;2023-12-07T04:00:38;23.75;;;23.75;;
73959;SDS011;62316;48.920;2.342;2023-12-07T04:03:03;29.75;;;27.00;;
73959;SDS011;62316;48.920;2.342;2023-12-07T04:05:28;25.00;;;21.50;;
73959;SDS011;62316;48.920;2.342;2023-12-07T04:07:54;27.50;;;22.50;;
73959;SDS011;62316;48.920;2.342;2023-12-07T04:10:19;28.50;;;22.00;;
73959;SDS011;62316;48.920;2.342;2023-12-07T04:12:44;27.75;;;22.75;;
73959;SDS011;62316;48.920;2.342;2023-12-07T04:15:10;33.50;;;27.25;;
73959;SDS011;62316;48.920;2.342;2023-12-07T04:17:35;24.50;;;22.00;;
73959;SDS011;62316;48.920;2.342;2023-12-07T04:20:00;24.50;;;21.75;;
73959;SDS011;62316;48.920;2.342;2023-12-07T04:22:26;31.75;;;28.50;;
73959;SDS011;62316;48.920;2.342;2023-12-07T04:24:51;25.50;;;22.00;;
73959;SDS011;62316;48.920;2.342;2023-12-07T04:27:17;28.25;;;23.50;;
73959;SDS011;62316;48.920;2.342;2023-12-07T04:29:42;35.00;;;30.25;;
73959;SDS011;62316;48.920;2.342;2023-12-07T04:32:07;36.25;;;30.75;;
73959;SDS011;62316;48.920;2.342;2023-12-07T04:34:33;28.25;;;24.00;;
73959;SDS011;62316;48.920;2.342;2023-12-07T04:36:59;28.25;;;26.50;;
73959;SDS011;62316;48.920;2.342;2023-12-07T04:39:24;27.25;;;24.25;;
73959;SDS011;62316;48.920;2.342;2023-12-07T04:41:50;27.50;;;24.50;;
73959;SDS011;62316;48.920;2.342;2023-12-07T04:44:16;37.50;;;28.00;;
73959;SDS011;62316;48.920;2.342;2023-12-07T04:46:41;33.75;;;29.50;;
73959;SDS011;62316;48.920;2.342;2023-12-07T04:49:07;35.00;;;27.50;;
73959;SDS011;62316;48.920;2.342;2023-12-07T04:51:39;30.25;;;27.50;;
73959;SDS011;62316;48.920;2.342;2023-12-07T04:54:06;35.75;;;29.25;;
73959;SDS011;62316;48.920;2.342;2023-12-07T04:56:32;31.25;;;27.75;;
73959;SDS011;62316;48.920;2.342;2023-12-07T04:58:57;28.25;;;22.25;;
73959;SDS011;62316;48.920;2.342;2023-12-07T05:01:23;23.75;;;22.75;;
73959;SDS011;62316;48.920;2.342;2023-12-07T05:03:48;26.25;;;21.00;;
73959;SDS011;62316;48.920;2.342;2023-12-07T05:06:13;26.25;;;23.50;;
73959;SDS011;62316;48.920;2.342;2023-12-07T05:08:39;24.75;;;20.50;;
73959;SDS011;62316;48.920;2.342;2023-12-07T05:11:05;28.00;;;23.75;;
73959;SDS011;62316;48.920;2.342;2023-12-07T05:13:31;38.00;;;27.50;;
73959;SDS011;62316;48.920;2.342;2023-12-07T05:15:58;26.50;;;22.50;;
73959;SDS011;62316;48.920;2.342;2023-12-07T05:18:24;37.75;;;31.75;;
73959;SDS011;62316;48.920;2.342;2023-12-07T05:20:50;28.75;;;24.25;;
73959;SDS011;62316;48.920;2.342;2023-12-07T05:23:15;25.50;;;23.00;;
73959;SDS011;62316;48.920;2.342;2023-12-07T05:25:42;32.75;;;25.75;;
73959;SDS011;62316;48.920;2.342;2023-12-07T05:28:08;27.50;;;23.50;;
73959;SDS011;62316;48.920;2.342;2023-12-07T05:30:34;35.00;;;26.00;;
73959;SDS011;62316;48.920;2.342;2023-12-07T05:32:59;22.00;;;21.00;;
73959;SDS011;62316;48.920;2.342;2023-12-07T05:35:24;27.75;;;27.25;;
73959;SDS011;62316;48.920;2.342;2023-12-07T05:37:50;28.50;;;24.00;;
73959;SDS011;62316;48.920;2.342;2023-12-07T05:40:15;33.25;;;27.25;;
73959;SDS011;62316;48.920;2.342;2023-12-07T05:42:41;27.75;;;22.75;;
73959;SDS011;62316;48.920;2.342;2023-12-07T05:45:06;31.50;;;23.00;;
73959;SDS011;62316;48.920;2.342;2023-12-07T05:47:35;27.25;;;22.50;;
73959;SDS011;62316;48.920;2.342;2023-12-07T05:50:01;26.25;;;21.25;;
73959;SDS011;62316;48.920;2.342;2023-12-07T05:52:28;29.00;;;22.50;;
73959;SDS011;62316;48.920;2.342;2023-12-07T05:54:53;30.75;;;23.75;;
73959;SDS011;62316;48.920;2.342;2023-12-07T05:57:19;26.50;;;20.25;;
73959;SDS011;62316;48.920;2.342;2023-12-07T05:59:44;28.25;;;20.50;;
73959;SDS011;62316;48.920;2.342;2023-12-07T06:02:09;25.00;;;23.25;;
73959;SDS011;62316;48.920;2.342;2023-12-07T06:04:35;26.00;;;23.25;;
73959;SDS011;62316;48.920;2.342;2023-12-07T06:07:00;34.50;;;26.00;;
73959;SDS011;62316;48.920;2.342;2023-12-07T06:09:26;22.75;;;21.75;;
73959;SDS011;62316;48.920;2.342;2023-12-07T06:11:51;28.50;;;23.25;;
73959;SDS011;62316;48.920;2.342;2023-12-07T06:14:16;23.00;;;21.75;;
73959;SDS011;62316;48.920;2.342;2023-12-07T06:16:42;30.75;;;22.50;;
73959;SDS011;62316;48.920;2.342;2023-12-07T06:19:09;30.50;;;27.50;;
73959;SDS011;62316;48.920;2.342;2023-12-07T06:21:34;22.00;;;20.75;;
73959;SDS011;62316;48.920;2.342;2023-12-07T06:23:59;21.50;;;19.50;;
73959;SDS011;62316;48.920;2.342;2023-12-07T06:26:25;21.00;;;17.75;;
73959;SDS011;62316;48.920;2.342;2023-12-07T06:28:51;27.75;;;20.25;;
73959;SDS011;62316;48.920;2.342;2023-12-07T06:31:16;27.75;;;21.50;;
73959;SDS011;62316;48.920;2.342;2023-12-07T06:33:46;24.00;;;20.75;;
73959;SDS011;62316;48.920;2.342;2023-12-07T06:36:20;20.00;;;16.00;;
73959;SDS011;62316;48.920;2.342;2023-12-07T06:41:44;22.25;;;19.00;;
73959;SDS011;62316;48.920;2.342;2023-12-07T06:44:09;21.75;;;19.25;;
73959;SDS011;62316;48.920;2.342;2023-12-07T06:46:35;25.75;;;19.75;;
73959;SDS011;62316;48.920;2.342;2023-12-07T06:49:01;20.00;;;18.50;;
73959;SDS011;62316;48.920;2.342;2023-12-07T06:51:37;16.25;;;16.25;;
73959;SDS011;62316;48.920;2.342;2023-12-07T06:54:03;23.25;;;18.25;;
73959;SDS011;62316;48.920;2.342;2023-12-07T06:56:29;28.75;;;28.75;;
73959;SDS011;62316;48.920;2.342;2023-12-07T06:58:55;25.00;;;21.00;;
73959;SDS011;62316;48.920;2.342;2023-12-07T07:09:04;19.50;;;17.50;;
73959;SDS011;62316;48.920;2.342;2023-12-07T07:11:30;26.00;;;21.50;;
73959;SDS011;62316;48.920;2.342;2023-12-07T07:13:56;22.00;;;19.25;;
73959;SDS011;62316;48.920;2.342;2023-12-07T07:16:22;21.75;;;15.50;;
73959;SDS011;62316;48.920;2.342;2023-12-07T07:18:48;23.00;;;20.50;;
73959;SDS011;62316;48.920;2.342;2023-12-07T07:21:14;19.00;;;17.25;;
73959;SDS011;62316;48.920;2.342;2023-12-07T07:23:41;17.00;;;16.00;;
73959;SDS011;62316;48.920;2.342;2023-12-07T07:26:07;23.25;;;18.75;;
73959;SDS011;62316;48.920;2.342;2023-12-07T07:28:33;18.50;;;18.25;;
73959;SDS011;62316;48.920;2.342;2023-12-07T07:31:07;23.50;;;18.00;;
73959;SDS011;62316;48.920;2.342;2023-12-07T07:33:32;19.50;;;17.50;;
73959;SDS011;62316;48.920;2.342;2023-12-07T07:36:00;17.50;;;16.75;;
73959;SDS011;62316;48.920;2.342;2023-12-07T07:38:26;19.75;;;17.75;;
73959;SDS011;62316;48.920;2.342;2023-12-07T07:40:51;17.00;;;15.00;;
73959;SDS011;62316;48.920;2.342;2023-12-07T07:43:17;21.75;;;17.50;;
73959;SDS011;62316;48.920;2.342;2023-12-07T07:45:45;20.25;;;19.00;;
73959;SDS011;62316;48.920;2.342;2023-12-07T07:48:13;16.50;;;15.50;;
73959;SDS011;62316;48.920;2.342;2023-12-07T07:50:38;19.25;;;16.50;;
73959;SDS011;62316;48.920;2.342;2023-12-07T07:53:05;21.00;;;19.50;;
73959;SDS011;62316;48.920;2.342;2023-12-07T07:55:31;21.75;;;17.00;;
73959;SDS011;62316;48.920;2.342;2023-12-07T07:57:57;20.50;;;18.00;;
73959;SDS011;62316;48.920;2.342;2023-12-07T08:00:22;18.25;;;16.50;;
73959;SDS011;62316;48.920;2.342;2023-12-07T08:02:53;14.75;;;13.00;;
73959;SDS011;62316;48.920;2.342;2023-12-07T08:05:20;19.25;;;17.00;;
73959;SDS011;62316;48.920;2.342;2023-12-07T08:07:51;22.25;;;19.00;;
73959;SDS011;62316;48.920;2.342;2023-12-07T08:10:17;20.50;;;18.00;;
73959;SDS011;62316;48.920;2.342;2023-12-07T08:12:44;19.50;;;19.50;;
73959;SDS011;62316;48.920;2.342;2023-12-07T08:15:10;16.25;;;16.00;;
73959;SDS011;62316;48.920;2.342;2023-12-07T08:17:37;26.25;;;18.50;;
73959;SDS011;62316;48.920;2.342;2023-12-07T08:20:08;20.75;;;18.50;;
73959;SDS011;62316;48.920;2.342;2023-12-07T08:22:38;23.50;;;17.25;;
73959;SDS011;62316;48.920;2.342;2023-12-07T08:25:06;18.50;;;16.00;;
73959;SDS011;62316;48.920;2.342;2023-12-07T08:27:33;22.25;;;17.25;;
73959;SDS011;62316;48.920;2.342;2023-12-07T08:29:59;14.50;;;13.50;;
73959;SDS011;62316;48.920;2.342;2023-12-07T08:32:33;12.50;;;11.50;;
73959;SDS011;62316;48.920;2.342;2023-12-07T08:35:01;16.50;;;14.25;;
73959;SDS011;62316;48.920;2.342;2023-12-07T08:37:27;18.25;;;14.50;;
73959;SDS011;62316;48.920;2.342;2023-12-07T08:39:52;12.50;;;8.75;;
73959;SDS011;62316;48.920;2.342;2023-12-07T08:42:18;21.25;;;18.00;;
73959;SDS011;62316;48.920;2.342;2023-12-07T08:44:44;20.50;;;17.00;;
73959;SDS011;62316;48.920;2.342;2023-12-07T08:47:10;21.00;;;16.00;;
73959;SDS011;62316;48.920;2.342;2023-12-07T08:49:41;21.00;;;17.25;;
73959;SDS011;62316;48.920;2.342;2023-12-07T08:52:12;22.75;;;15.75;;
73959;SDS011;62316;48.920;2.342;2023-12-07T08:54:39;23.00;;;18.50;;
73959;SDS011;62316;48.920;2.342;2023-12-07T08:57:06;16.75;;;15.00;;
73959;SDS011;62316;48.920;2.342;2023-12-07T08:59:38;15.50;;;15.50;;
73959;SDS011;62316;48.920;2.342;2023-12-07T09:02:05;18.00;;;18.00;;
73959;SDS011;62316;48.920;2.342;2023-12-07T09:04:31;24.75;;;20.75;;
73959;SDS011;62316;48.920;2.342;2023-12-07T09:06:57;21.75;;;19.75;;
73959;SDS011;62316;48.920;2.342;2023-12-07T09:09:25;17.75;;;17.75;;
73959;SDS011;62316;48.920;2.342;2023-12-07T09:11:54;16.50;;;13.00;;
73959;SDS011;62316;48.920;2.342;2023-12-07T09:14:27;17.75;;;17.00;;
73959;SDS011;62316;48.920;2.342;2023-12-07T09:17:08;16.00;;;12.50;;
73959;SDS011;62316;48.920;2.342;2023-12-07T09:19:36;17.25;;;17.00;;
73959;SDS011;62316;48.920;2.342;2023-12-07T09:22:37;20.50;;;17.25;;
73959;SDS011;62316;48.920;2.342;2023-12-07T09:25:22;20.50;;;19.50;;
73959;SDS011;62316;48.920;2.342;2023-12-07T09:27:53;17.75;;;17.00;;
73959;SDS011;62316;48.920;2.342;2023-12-07T09:30:32;17.75;;;16.75;;
73959;SDS011;62316;48.920;2.342;2023-12-07T09:33:33;15.75;;;13.50;;
73959;SDS011;62316;48.920;2.342;2023-12-07T09:36:00;17.50;;;16.50;;
73959;SDS011;62316;48.920;2.342;2023-12-07T09:38:35;18.50;;;17.00;;
73959;SDS011;62316;48.920;2.342;2023-12-07T09:41:03;17.00;;;15.00;;
73959;SDS011;62316;48.920;2.342;2023-12-07T09:43:33;17.25;;;15.50;;
73959;SDS011;62316;48.920;2.342;2023-12-07T09:46:06;13.25;;;12.00;;
73959;SDS011;62316;48.920;2.342;2023-12-07T09:48:35;17.25;;;13.00;;
73959;SDS011;62316;48.920;2.342;2023-12-07T09:51:02;18.25;;;16.75;;
73959;SDS011;62316;48.920;2.342;2023-12-07T09:53:36;24.00;;;17.00;;
73959;SDS011;62316;48.920;2.342;2023-12-07T09:56:08;14.50;;;11.25;;
73959;SDS011;62316;48.920;2.342;2023-12-07T09:58:36;20.00;;;15.25;;
73959;SDS011;62316;48.920;2.342;2023-12-07T10:01:07;15.00;;;13.00;;
73959;SDS011;62316;48.920;2.342;2023-12-07T10:03:39;13.25;;;11.00;;
73959;SDS011;62316;48.920;2.342;2023-12-07T10:06:08;12.75;;;11.25;;
73959;SDS011;62316;48.920;2.342;2023-12-07T10:08:36;14.00;;;14.00;;
73959;SDS011;62316;48.920;2.342;2023-12-07T10:11:05;16.75;;;15.50;;
73959;SDS011;62316;48.920;2.342;2023-12-07T10:13:40;20.50;;;20.50;;
73959;SDS011;62316;48.920;2.342;2023-12-07T10:37:51;16.75;;;15.00;;
73959;SDS011;62316;48.920;2.342;2023-12-07T10:47:37;17.50;;;14.00;;
73959;SDS011;62316;48.920;2.342;2023-12-07T10:57:33;22.50;;;18.00;;
73959;SDS011;62316;48.920;2.342;2023-12-07T11:17:47;13.75;;;12.00;;
73959;SDS011;62316;48.920;2.342;2023-12-07T11:20:22;14.00;;;9.25;;
73959;SDS011;62316;48.920;2.342;2023-12-07T11:23:42;15.00;;;13.00;;
73959;SDS011;62316;48.920;2.342;2023-12-07T11:26:09;13.25;;;13.25;;
73959;SDS011;62316;48.920;2.342;2023-12-07T11:28:35;12.00;;;12.00;;
73959;SDS011;62316;48.920;2.342;2023-12-07T11:31:01;14.50;;;12.00;;
73959;SDS011;62316;48.920;2.342;2023-12-07T11:33:28;14.25;;;12.25;;
73959;SDS011;62316;48.920;2.342;2023-12-07T11:36:13;17.00;;;12.50;;
73959;SDS011;62316;48.920;2.342;2023-12-07T11:39:15;14.75;;;14.00;;
73959;SDS011;62316;48.920;2.342;2023-12-07T11:41:33;11.50;;;8.75;;
73959;SDS011;62316;48.920;2.342;2023-12-07T11:44:00;14.25;;;14.00;;
73959;SDS011;62316;48.920;2.342;2023-12-07T11:46:25;14.50;;;12.00;;
73959;SDS011;62316;48.920;2.342;2023-12-07T11:48:50;16.25;;;11.25;;
73959;SDS011;62316;48.920;2.342;2023-12-07T11:51:16;12.50;;;12.00;;
73959;SDS011;62316;48.920;2.342;2023-12-07T11:53:42;17.75;;;16.25;;
73959;SDS011;62316;48.920;2.342;2023-12-07T11:56:09;15.00;;;14.50;;
73959;SDS011;62316;48.920;2.342;2023-12-07T11:58:36;18.75;;;16.75;;
73959;SDS011;62316;48.920;2.342;2023-12-07T12:01:03;16.00;;;15.00;;
73959;SDS011;62316;48.920;2.342;2023-12-07T12:03:30;16.75;;;14.50;;
73959;SDS011;62316;48.920;2.342;2023-12-07T12:05:57;11.75;;;9.50;;
73959;SDS011;62316;48.920;2.342;2023-12-07T12:08:23;10.00;;;10.00;;
73959;SDS011;62316;48.920;2.342;2023-12-07T12:10:50;8.50;;;8.50;;
73959;SDS011;62316;48.920;2.342;2023-12-07T12:13:25;16.50;;;13.25;;
73959;SDS011;62316;48.920;2.342;2023-12-07T12:15:58;12.75;;;12.75;;
73959;SDS011;62316;48.920;2.342;2023-12-07T12:18:25;13.50;;;11.50;;
73959;SDS011;62316;48.920;2.342;2023-12-07T12:20:52;8.75;;;8.75;;
73959;SDS011;62316;48.920;2.342;2023-12-07T12:23:22;10.00;;;10.00;;
73959;SDS011;62316;48.920;2.342;2023-12-07T12:25:52;13.00;;;12.00;;
73959;SDS011;62316;48.920;2.342;2023-12-07T12:28:18;12.75;;;11.50;;
73959;SDS011;62316;48.920;2.342;2023-12-07T12:30:46;8.50;;;8.50;;
73959;SDS011;62316;48.920;2.342;2023-12-07T12:33:12;12.00;;;10.25;;
73959;SDS011;62316;48.920;2.342;2023-12-07T12:35:38;12.00;;;11.25;;
73959;SDS011;62316;48.920;2.342;2023-12-07T12:38:03;12.25;;;7.75;;
73959;SDS011;62316;48.920;2.342;2023-12-07T12:40:34;10.75;;;10.75;;
73959;SDS011;62316;48.920;2.342;2023-12-07T12:43:01;15.50;;;12.75;;
73959;SDS011;62316;48.920;2.342;2023-12-07T12:45:27;14.50;;;12.00;;
73959;SDS011;62316;48.920;2.342;2023-12-07T12:47:53;15.50;;;13.00;;
73959;SDS011;62316;48.920;2.342;2023-12-07T12:50:39;10.50;;;8.50;;
73959;SDS011;62316;48.920;2.342;2023-12-07T12:53:07;11.00;;;11.00;;
73959;SDS011;62316;48.920;2.342;2023-12-07T12:55:35;15.75;;;13.00;;
73959;SDS011;62316;48.920;2.342;2023-12-07T12:58:02;23.00;;;16.50;;
73959;SDS011;62316;48.920;2.342;2023-12-07T13:00:29;17.25;;;14.75;;
73959;SDS011;62316;48.920;2.342;2023-12-07T13:02:58;12.00;;;11.00;;
73959;SDS011;62316;48.920;2.342;2023-12-07T13:05:24;14.00;;;13.00;;
73959;SDS011;62316;48.920;2.342;2023-12-07T13:07:50;13.25;;;11.25;;
73959;SDS011;62316;48.920;2.342;2023-12-07T13:10:16;8.00;;;6.75;;
73959;SDS011;62316;48.920;2.342;2023-12-07T13:12:42;11.25;;;10.50;;
73959;SDS011;62316;48.920;2.342;2023-12-07T13:15:08;6.50;;;6.25;;
73959;SDS011;62316;48.920;2.342;2023-12-07T13:17:34;12.00;;;11.75;;
73959;SDS011;62316;48.920;2.342;2023-12-07T13:20:00;12.00;;;11.00;;
73959;SDS011;62316;48.920;2.342;2023-12-07T13:22:25;13.50;;;11.50;;
73959;SDS011;62316;48.920;2.342;2023-12-07T13:24:51;8.75;;;8.75;;
73959;SDS011;62316;48.920;2.342;2023-12-07T13:27:16;12.00;;;11.00;;
73959;SDS011;62316;48.920;2.342;2023-12-07T13:29:43;11.50;;;9.00;;
73959;SDS011;62316;48.920;2.342;2023-12-07T13:32:08;14.00;;;9.75;;
73959;SDS011;62316;48.920;2.342;2023-12-07T13:34:35;8.00;;;7.75;;
73959;SDS011;62316;48.920;2.342;2023-12-07T13:37:00;10.50;;;8.75;;
73959;SDS011;62316;48.920;2.342;2023-12-07T13:39:26;11.00;;;11.00;;
73959;SDS011;62316;48.920;2.342;2023-12-07T13:41:55;12.25;;;12.00;;
73959;SDS011;62316;48.920;2.342;2023-12-07T13:44:21;3.00;;;3.00;;
73959;SDS011;62316;48.920;2.342;2023-12-07T13:46:46;8.50;;;7.50;;
73959;SDS011;62316;48.920;2.342;2023-12-07T13:49:13;11.00;;;9.25;;
73959;SDS011;62316;48.920;2.342;2023-12-07T13:51:39;13.25;;;13.00;;
73959;SDS011;62316;48.920;2.342;2023-12-07T13:54:05;10.75;;;9.25;;
73959;SDS011;62316;48.920;2.342;2023-12-07T13:56:32;13.50;;;8.00;;
73959;SDS011;62316;48.920;2.342;2023-12-07T13:59:00;9.00;;;8.50;;
73959;SDS011;62316;48.920;2.342;2023-12-07T14:01:26;8.25;;;8.25;;
73959;SDS011;62316;48.920;2.342;2023-12-07T14:03:51;13.75;;;11.50;;
73959;SDS011;62316;48.920;2.342;2023-12-07T14:06:23;12.50;;;9.75;;
73959;SDS011;62316;48.920;2.342;2023-12-07T14:08:49;11.75;;;9.75;;
73959;SDS011;62316;48.920;2.342;2023-12-07T14:11:16;8.00;;;8.00;;
73959;SDS011;62316;48.920;2.342;2023-12-07T14:13:44;14.00;;;12.00;;
73959;SDS011;62316;48.920;2.342;2023-12-07T14:16:13;10.75;;;8.75;;
73959;SDS011;62316;48.920;2.342;2023-12-07T14:18:39;11.75;;;8.50;;
73959;SDS011;62316;48.920;2.342;2023-12-07T14:21:05;12.75;;;9.50;;
73959;SDS011;62316;48.920;2.342;2023-12-07T14:23:39;8.00;;;7.00;;
73959;SDS011;62316;48.920;2.342;2023-12-07T14:26:05;11.25;;;10.75;;
73959;SDS011;62316;48.920;2.342;2023-12-07T14:28:30;13.75;;;12.25;;
73959;SDS011;62316;48.920;2.342;2023-12-07T14:30:58;8.00;;;7.25;;
73959;SDS011;62316;48.920;2.342;2023-12-07T14:33:24;12.25;;;9.25;;
73959;SDS011;62316;48.920;2.342;2023-12-07T14:35:57;9.25;;;8.00;;
73959;SDS011;62316;48.920;2.342;2023-12-07T14:38:30;7.75;;;7.50;;
73959;SDS011;62316;48.920;2.342;2023-12-07T14:40:57;15.75;;;14.25;;
73959;SDS011;62316;48.920;2.342;2023-12-07T14:43:23;9.25;;;9.00;;
73959;SDS011;62316;48.920;2.342;2023-12-07T14:45:49;7.00;;;6.00;;
73959;SDS011;62316;48.920;2.342;2023-12-07T14:48:14;10.25;;;10.25;;
73959;SDS011;62316;48.920;2.342;2023-12-07T14:50:40;8.50;;;8.50;;
73959;SDS011;62316;48.920;2.342;2023-12-07T14:53:05;11.25;;;7.75;;
73959;SDS011;62316;48.920;2.342;2023-12-07T14:55:31;8.75;;;7.75;;
73959;SDS011;62316;48.920;2.342;2023-12-07T14:57:56;7.00;;;7.00;;
73959;SDS011;62316;48.920;2.342;2023-12-07T15:00:24;10.50;;;7.00;;
73959;SDS011;62316;48.920;2.342;2023-12-07T15:02:50;12.75;;;8.25;;
73959;SDS011;62316;48.920;2.342;2023-12-07T15:05:17;7.75;;;6.50;;
73959;SDS011;62316;48.920;2.342;2023-12-07T15:07:42;8.50;;;7.75;;
73959;SDS011;62316;48.920;2.342;2023-12-07T15:10:08;9.00;;;6.75;;
73959;SDS011;62316;48.920;2.342;2023-12-07T15:12:36;7.00;;;6.00;;
73959;SDS011;62316;48.920;2.342;2023-12-07T15:15:01;9.00;;;9.00;;
73959;SDS011;62316;48.920;2.342;2023-12-07T15:17:30;7.00;;;5.50;;
73959;SDS011;62316;48.920;2.342;2023-12-07T15:19:56;11.50;;;8.00;;
73959;SDS011;62316;48.920;2.342;2023-12-07T15:22:23;9.00;;;8.50;;
73959;SDS011;62316;48.920;2.342;2023-12-07T15:24:49;6.75;;;5.75;;
73959;SDS011;62316;48.920;2.342;2023-12-07T15:27:20;4.25;;;3.75;;
73959;SDS011;62316;48.920;2.342;2023-12-07T15:29:46;5.00;;;5.00;;
73959;SDS011;62316;48.920;2.342;2023-12-07T15:32:11;15.50;;;15.50;;